Chatom, Alabama
Current Conditions -  °F | °C
As of 2:56 PM on Thursday 27 Nov 2014 (Local Time) from KMOB Reporting Station
Clear Clear  
Wind Chill: 57°   Ceiling: Unl
Heat Index: 57°   Visibility: 10mi
Dew Point: 31°   Wind: 10mph
Humidity: 37%   Direction: 320°NW
Pressure: 30.37"   Gusts: NA
Location:  31.47°N, 88.25°W
Report Text: KMOB 272056Z 32009KT 10SM CLR 14/M01 A3037 RMK AO2 SLP283 T01391006 55004 $
Loading
Personal Weather Stations






























Interactive Weather Map New forecast layout! Learn more

10-Day Weather Forecast

Advertisements
Track Severe Weather on mobile